createdAt,value
2022-10-19T06:29:39.008Z,20.83
2022-10-19T06:34:40.385Z,20.75
2022-10-19T06:39:41.780Z,20.73
2022-10-19T06:44:43.193Z,20.73
2022-10-19T06:49:44.561Z,20.73
2022-10-19T06:54:45.924Z,20.71
2022-10-19T06:59:50.141Z,20.69
2022-10-19T07:04:54.384Z,20.71
2022-10-19T07:09:55.752Z,20.74
2022-10-19T07:14:57.982Z,20.72
2022-10-19T07:20:02.440Z,20.77
2022-10-19T07:25:03.982Z,20.74
2022-10-19T07:30:05.759Z,20.69
2022-10-19T07:35:07.328Z,20.66
2022-10-19T07:40:09.317Z,20.69
2022-10-19T07:45:10.857Z,20.58
2022-10-19T07:50:12.214Z,20.63
2022-10-19T07:55:13.579Z,20.66
2022-10-19T08:00:16.377Z,20.69
2022-10-19T08:05:18.060Z,20.67
2022-10-19T08:10:19.664Z,20.70
2022-10-19T08:15:21.085Z,20.69
2022-10-19T08:20:22.531Z,20.64
2022-10-19T08:25:23.932Z,20.67
2022-10-19T08:30:25.300Z,20.66
2022-10-19T08:35:26.666Z,20.63
2022-10-19T08:40:29.164Z,20.68
2022-10-19T08:45:43.121Z,20.69
2022-10-19T08:50:45.121Z,20.67
2022-10-19T08:56:04.872Z,20.62
2022-10-19T09:01:15.396Z,20.67
2022-10-19T09:06:22.439Z,20.60
2022-10-19T09:11:25.899Z,20.64
2022-10-19T09:16:27.370Z,20.62
2022-10-19T09:21:47.256Z,20.75
2022-10-19T09:26:53.489Z,20.85
2022-10-19T09:31:55.915Z,20.92
2022-10-19T09:36:57.898Z,20.93
2022-10-19T09:42:10.813Z,21.02
2022-10-19T09:47:31.301Z,21.03
2022-10-19T09:52:35.801Z,21.07
2022-10-19T09:57:42.457Z,21.08
2022-10-19T10:02:48.678Z,21.10
2022-10-19T10:07:50.048Z,21.12
2022-10-19T10:12:51.801Z,21.14
2022-10-19T10:17:53.158Z,21.17
2022-10-19T10:23:02.708Z,21.20
2022-10-19T10:28:17.900Z,21.22
2022-10-19T10:33:40.313Z,21.18
2022-10-19T10:38:47.220Z,21.11
2022-10-19T10:44:02.154Z,21.09
2022-10-19T10:49:06.786Z,21.04
2022-10-19T10:54:24.680Z,21.01
2022-10-19T10:59:31.558Z,20.97
2022-10-19T11:04:36.865Z,20.95
2022-10-19T11:09:41.548Z,20.91
2022-10-19T11:14:46.869Z,20.94
2022-10-19T11:19:51.105Z,20.97
2022-10-19T11:25:04.613Z,21.06
2022-10-19T11:30:09.639Z,21.08
2022-10-19T11:35:30.031Z,21.16
2022-10-19T11:40:45.791Z,21.30
2022-10-19T11:46:33.248Z,21.33
2022-10-19T11:51:46.452Z,21.32
2022-10-19T11:57:03.510Z,21.38
2022-10-19T12:02:41.009Z,21.33
2022-10-19T12:07:55.337Z,21.27
2022-10-19T12:12:58.815Z,21.37
2022-10-19T12:18:29.900Z,21.28
2022-10-19T12:23:34.222Z,21.15
2022-10-19T12:28:37.091Z,21.13
2022-10-19T12:33:58.491Z,21.00
2022-10-19T12:39:08.392Z,20.93
2022-10-19T12:44:28.403Z,20.78
2022-10-19T12:49:29.630Z,20.87
2022-10-19T12:54:35.582Z,20.99
2022-10-19T12:59:36.817Z,20.74
2022-10-19T13:04:39.576Z,20.84
2022-10-19T13:09:44.769Z,20.75
2022-10-19T13:15:02.212Z,20.76
2022-10-19T13:20:15.562Z,20.75
2022-10-19T13:25:21.018Z,20.75
2022-10-19T13:30:43.759Z,20.70
2022-10-19T13:35:45.152Z,20.71
2022-10-19T13:40:49.484Z,20.75
2022-10-19T13:45:54.801Z,20.68
2022-10-19T13:51:02.913Z,20.71
2022-10-19T13:56:24.678Z,20.73
2022-10-19T14:01:41.617Z,20.69
2022-10-19T14:06:44.739Z,20.61
2022-10-19T14:11:48.017Z,20.61
2022-10-19T14:16:58.439Z,20.58
2022-10-19T14:22:18.392Z,20.65
2022-10-19T14:27:23.242Z,20.63
2022-10-19T14:32:28.586Z,20.56
2022-10-19T14:37:30.034Z,20.52
2022-10-19T14:42:58.152Z,20.73
2022-10-19T14:48:01.506Z,20.84
2022-10-19T14:53:07.158Z,20.83
2022-10-19T14:58:12.420Z,20.90
2022-10-19T15:03:40.245Z,20.89
2022-10-19T15:08:51.014Z,20.83
2022-10-19T15:13:57.866Z,20.79
2022-10-19T15:19:04.237Z,20.82
2022-10-19T15:24:16.169Z,20.83
2022-10-19T15:29:22.688Z,20.81
2022-10-19T15:34:25.684Z,20.75
2022-10-19T15:39:39.782Z,20.77
2022-10-19T15:44:43.824Z,20.80
2022-10-19T15:49:45.608Z,20.71
2022-10-19T15:54:47.637Z,20.75
2022-10-19T15:59:49.056Z,20.72
2022-10-19T16:04:51.536Z,20.78
2022-10-19T16:09:53.065Z,20.67
2022-10-19T16:14:54.694Z,20.70
2022-10-19T16:19:56.052Z,20.69
2022-10-19T16:24:57.404Z,20.78
2022-10-19T16:29:58.764Z,20.78
2022-10-19T16:35:00.145Z,20.68
2022-10-19T16:40:01.509Z,20.75
2022-10-19T16:45:02.876Z,20.76
2022-10-19T16:50:05.390Z,20.68
2022-10-19T16:55:07.248Z,20.71
2022-10-19T17:00:09.951Z,20.68
2022-10-19T17:05:11.313Z,20.68
2022-10-19T17:10:12.792Z,20.67
2022-10-19T17:20:35.604Z,20.70
2022-10-19T17:25:36.969Z,20.72
2022-10-19T17:30:41.117Z,20.69
2022-10-19T17:35:42.476Z,20.67
2022-10-19T17:40:43.856Z,20.64
2022-10-19T17:45:45.437Z,20.56
2022-10-19T17:50:55.896Z,20.66
2022-10-19T17:56:04.000Z,20.65
2022-10-19T18:01:05.428Z,20.63
2022-10-19T18:06:13.512Z,20.61
2022-10-19T18:11:19.725Z,20.56
2022-10-19T18:16:25.709Z,20.64
2022-10-19T18:21:27.785Z,20.60
2022-10-19T18:26:30.959Z,20.61
2022-10-19T18:31:33.321Z,20.55
2022-10-19T18:36:34.764Z,20.57
2022-10-19T18:41:36.833Z,20.54
2022-10-19T18:46:38.257Z,20.55
2022-10-19T18:51:39.640Z,20.58
2022-10-19T18:56:41.020Z,20.51
2022-10-19T19:01:42.491Z,20.56
2022-10-19T19:06:43.866Z,20.58
2022-10-19T19:11:45.284Z,20.54
2022-10-19T19:16:46.790Z,20.55
2022-10-19T19:21:48.830Z,20.55
2022-10-19T19:26:52.060Z,20.51
2022-10-19T19:31:53.568Z,20.46
2022-10-19T19:36:55.065Z,20.46
2022-10-19T19:41:56.478Z,20.46
2022-10-19T19:46:58.550Z,20.49
2022-10-19T19:51:59.912Z,20.47
2022-10-19T19:57:01.296Z,20.48
2022-10-19T20:02:02.693Z,20.44
2022-10-19T20:07:04.056Z,20.41
2022-10-19T20:12:05.416Z,20.46
2022-10-19T20:17:06.773Z,20.44
2022-10-19T20:22:08.162Z,20.40
2022-10-19T20:27:09.528Z,20.42
2022-10-19T20:32:10.885Z,20.40
2022-10-19T20:37:12.242Z,20.44
2022-10-19T20:42:14.258Z,20.41
2022-10-19T20:47:15.612Z,20.36
2022-10-19T20:52:16.968Z,20.36
2022-10-19T20:57:18.324Z,20.41
2022-10-19T21:02:19.703Z,20.38
2022-10-19T21:07:21.056Z,20.36
2022-10-19T21:12:22.423Z,20.39
2022-10-19T21:17:23.847Z,20.35
2022-10-19T21:22:25.229Z,20.27
2022-10-19T21:27:26.580Z,20.35
2022-10-19T21:32:27.936Z,20.32
2022-10-19T21:37:29.453Z,20.31
2022-10-19T21:42:30.829Z,20.31
2022-10-19T21:47:32.224Z,20.29
2022-10-19T21:52:33.605Z,20.27
2022-10-19T21:57:35.211Z,20.29
2022-10-19T22:02:36.744Z,20.25
2022-10-19T22:07:38.350Z,20.19
2022-10-19T22:12:39.989Z,20.24
2022-10-19T22:17:41.431Z,20.22
2022-10-19T22:22:42.788Z,20.22
2022-10-19T22:27:44.152Z,20.23
2022-10-19T22:32:45.537Z,20.20
2022-10-19T22:37:46.898Z,20.20
2022-10-19T22:42:48.272Z,20.18
2022-10-19T22:47:49.637Z,20.20
2022-10-19T22:52:51.019Z,20.20
2022-10-19T22:57:52.380Z,20.17
2022-10-19T23:02:53.740Z,20.14
2022-10-19T23:07:55.111Z,20.11
2022-10-19T23:12:56.477Z,20.16
2022-10-19T23:17:57.973Z,20.18
2022-10-19T23:22:59.346Z,20.17
2022-10-19T23:28:00.764Z,20.11
2022-10-19T23:33:02.128Z,20.15
2022-10-19T23:38:03.488Z,20.12
2022-10-19T23:43:04.894Z,20.07
2022-10-19T23:48:06.259Z,20.13
2022-10-19T23:53:07.641Z,20.14
2022-10-19T23:58:09.001Z,20.03
